Time,TemperatureF,DewpointF,PressureIn,WindDirection,WindDirectionDegrees,WindSpeedMPH,WindSpeedGustMPH,Humidity,HourlyPrecipIn,Conditions,Clouds,dailyrainin,SoftwareType,DateUTC
2013-02-10 00:00:00,37.3,31.1,29.99,South,186,9.0,20.0,78,0.00,,---,0.00,VWS V14.00,2013-02-10 06:00:00,
2013-02-10 00:05:00,37.3,31.1,29.99,SSW,205,5.0,20.0,78,0.00,,---,0.00,VWS V14.00,2013-02-10 06:05:00,
2013-02-10 00:10:00,37.4,31.2,29.99,SSW,205,7.0,20.0,78,0.00,,---,0.00,VWS V14.00,2013-02-10 06:10:00,
2013-02-10 00:15:00,37.5,31.3,30.00,SW,217,7.0,16.0,78,0.00,,---,0.00,VWS V14.00,2013-02-10 06:15:00,
2013-02-10 00:20:00,37.7,31.5,30.00,SW,217,7.0,18.0,78,0.00,,---,0.00,VWS V14.00,2013-02-10 06:20:00,
2013-02-10 00:25:00,37.8,31.2,30.00,SSW,200,5.0,18.0,77,0.00,,---,0.00,VWS V14.00,2013-02-10 06:25:00,
2013-02-10 00:30:00,37.8,31.6,30.00,SSW,203,10.0,19.0,78,0.00,,---,0.00,VWS V14.00,2013-02-10 06:30:00,
2013-02-10 00:35:00,37.7,31.8,30.00,SSW,196,13.0,19.0,79,0.00,,---,0.00,VWS V14.00,2013-02-10 06:35:00,
2013-02-10 00:40:00,37.6,32.0,30.00,SW,214,10.0,19.0,80,0.00,,---,0.00,VWS V14.00,2013-02-10 06:40:00,
2013-02-10 00:45:00,37.5,32.2,29.99,South,185,3.0,16.0,81,0.00,,---,0.00,VWS V14.00,2013-02-10 06:45:00,
2013-02-10 00:50:00,37.4,32.1,29.99,South,183,13.0,18.0,81,0.01,,---,0.01,VWS V14.00,2013-02-10 06:50:00,
2013-02-10 00:55:00,37.4,32.4,29.99,SW,231,5.0,23.0,82,0.01,,---,0.01,VWS V14.00,2013-02-10 06:55:00,
2013-02-10 01:00:00,37.3,32.3,29.99,SW,219,12.0,23.0,82,0.01,,---,0.01,VWS V14.00,2013-02-10 07:00:00,
2013-02-10 01:05:00,37.3,32.6,29.99,SSW,210,7.0,23.0,83,0.01,,---,0.01,VWS V14.00,2013-02-10 07:05:00,
2013-02-10 01:10:00,37.2,32.8,29.99,SW,228,4.0,23.0,84,0.01,,---,0.01,VWS V14.00,2013-02-10 07:10:00,
2013-02-10 01:15:00,37.2,32.8,29.99,SW,214,9.0,12.0,84,0.01,,---,0.01,VWS V14.00,2013-02-10 07:15:00,
2013-02-10 01:20:00,37.2,32.8,29.99,SSW,202,11.0,22.0,84,0.01,,---,0.01,VWS V14.00,2013-02-10 07:20:00,
2013-02-10 01:25:00,37.1,33.0,29.99,South,177,8.0,22.0,85,0.01,,---,0.01,VWS V14.00,2013-02-10 07:25:00,
2013-02-10 01:30:00,37.0,32.9,29.98,South,172,9.0,22.0,85,0.01,,---,0.01,VWS V14.00,2013-02-10 07:30:00,
2013-02-10 01:35:00,37.0,32.9,29.98,WSW,257,7.0,22.0,85,0.01,,---,0.01,VWS V14.00,2013-02-10 07:35:00,
2013-02-10 01:40:00,36.9,33.1,29.98,SW,225,6.0,22.0,86,0.01,,---,0.01,VWS V14.00,2013-02-10 07:40:00,
2013-02-10 01:45:00,36.9,33.1,29.97,South,174,0.0,12.0,86,0.01,,---,0.01,VWS V14.00,2013-02-10 07:45:00,
2013-02-10 01:50:00,36.8,33.0,29.97,SE,143,7.0,13.0,86,0.01,,---,0.01,VWS V14.00,2013-02-10 07:50:00,
2013-02-10 01:55:00,36.7,32.9,29.97,SSE,165,3.0,16.0,86,0.02,,---,0.02,VWS V14.00,2013-02-10 07:55:00,
2013-02-10 02:00:00,36.6,34.5,29.96,SSE,154,5.0,16.0,92,0.02,,---,0.02,VWS V14.00,2013-02-10 08:00:00,
2013-02-10 02:05:00,36.6,33.1,29.96,SSE,163,4.0,18.0,87,0.02,,---,0.02,VWS V14.00,2013-02-10 08:05:00,
2013-02-10 02:10:00,36.6,33.1,29.96,SE,135,0.0,18.0,87,0.02,,---,0.02,VWS V14.00,2013-02-10 08:10:00,
2013-02-10 02:15:00,36.7,33.5,29.96,SSW,201,6.0,21.0,88,0.01,,---,0.02,VWS V14.00,2013-02-10 08:15:00,
2013-02-10 02:20:00,36.8,33.6,29.96,SE,140,0.0,21.0,88,0.02,,---,0.03,VWS V14.00,2013-02-10 08:20:00,
2013-02-10 02:25:00,36.8,33.6,29.96,South,190,7.0,21.0,88,0.02,,---,0.03,VWS V14.00,2013-02-10 08:25:00,
2013-02-10 02:30:00,36.8,33.6,29.96,South,176,7.0,21.0,88,0.02,,---,0.03,VWS V14.00,2013-02-10 08:30:00,
2013-02-10 02:35:00,36.8,33.6,29.96,South,188,10.0,21.0,88,0.02,,---,0.03,VWS V14.00,2013-02-10 08:35:00,
2013-02-10 02:40:00,36.8,33.6,29.96,South,186,8.0,23.0,88,0.02,,---,0.03,VWS V14.00,2013-02-10 08:40:00,
2013-02-10 02:45:00,36.8,33.6,29.95,SSE,167,2.0,14.0,88,0.02,,---,0.03,VWS V14.00,2013-02-10 08:45:00,
2013-02-10 02:50:00,36.9,33.7,29.95,South,179,4.0,18.0,88,0.02,,---,0.03,VWS V14.00,2013-02-10 08:50:00,
2013-02-10 02:55:00,36.9,33.7,29.95,South,190,4.0,18.0,88,0.02,,---,0.03,VWS V14.00,2013-02-10 08:55:00,
2013-02-10 03:00:00,36.9,33.7,29.95,SSW,198,9.0,18.0,88,0.02,,---,0.03,VWS V14.00,2013-02-10 09:00:00,
2013-02-10 03:05:00,36.8,33.6,29.95,SSE,167,6.0,18.0,88,0.03,,---,0.04,VWS V14.00,2013-02-10 09:05:00,
2013-02-10 03:10:00,36.7,33.8,29.95,ESE,115,4.0,18.0,89,0.03,,---,0.04,VWS V14.00,2013-02-10 09:10:00,
2013-02-10 03:15:00,36.6,33.7,29.93,SSW,193,2.0,18.0,89,0.02,,---,0.04,VWS V14.00,2013-02-10 09:15:00,
2013-02-10 03:20:00,36.5,33.8,29.93,SSE,153,5.0,18.0,90,0.02,,---,0.04,VWS V14.00,2013-02-10 09:20:00,
2013-02-10 03:25:00,36.4,33.8,29.93,SSW,206,4.0,18.0,90,0.02,,---,0.04,VWS V14.00,2013-02-10 09:25:00,
2013-02-10 03:30:00,36.3,33.7,29.91,South,183,5.0,18.0,90,0.03,,---,0.05,VWS V14.00,2013-02-10 09:30:00,
2013-02-10 03:35:00,36.2,33.8,29.91,SSE,162,5.0,18.0,91,0.04,,---,0.06,VWS V14.00,2013-02-10 09:35:00,
2013-02-10 03:40:00,36.2,33.8,29.91,South,169,7.0,18.0,91,0.04,,---,0.06,VWS V14.00,2013-02-10 09:40:00,
2013-02-10 03:45:00,36.1,33.7,29.91,SE,146,5.0,10.0,91,0.04,,---,0.07,VWS V14.00,2013-02-10 09:45:00,
2013-02-10 03:50:00,36.1,33.7,29.91,NE,52,4.0,18.0,91,0.04,,---,0.07,VWS V14.00,2013-02-10 09:50:00,
2013-02-10 03:55:00,36.2,34.1,29.91,SE,139,7.0,18.0,92,0.04,,---,0.07,VWS V14.00,2013-02-10 09:55:00,
2013-02-10 04:00:00,36.2,34.1,29.90,SE,124,5.0,18.0,92,0.05,,---,0.08,VWS V14.00,2013-02-10 10:00:00,
2013-02-10 04:05:00,36.2,34.1,29.90,South,191,1.0,18.0,92,0.05,,---,0.08,VWS V14.00,2013-02-10 10:05:00,
2013-02-10 04:10:00,36.1,34.3,29.90,SE,144,0.0,18.0,93,0.05,,---,0.08,VWS V14.00,2013-02-10 10:10:00,
2013-02-10 04:15:00,36.1,34.3,29.89,South,186,1.0,12.0,93,0.04,,---,0.08,VWS V14.00,2013-02-10 10:15:00,
2013-02-10 04:20:00,36.1,34.3,29.89,SSE,153,15.0,18.0,93,0.04,,---,0.08,VWS V14.00,2013-02-10 10:20:00,
2013-02-10 04:25:00,36.1,34.3,29.89,SSE,152,3.0,18.0,93,0.04,,---,0.08,VWS V14.00,2013-02-10 10:25:00,
2013-02-10 04:30:00,36.1,34.3,29.89,SE,129,4.0,18.0,93,0.04,,---,0.08,VWS V14.00,2013-02-10 10:30:00,
2013-02-10 04:35:00,36.1,34.3,29.89,ESE,104,4.0,18.0,93,0.05,,---,0.09,VWS V14.00,2013-02-10 10:35:00,
2013-02-10 04:40:00,36.1,34.3,29.89,SE,131,0.0,18.0,93,0.05,,---,0.09,VWS V14.00,2013-02-10 10:40:00,
2013-02-10 04:45:00,36.2,34.4,29.88,SSW,195,2.0,9.0,93,0.03,,---,0.09,VWS V14.00,2013-02-10 10:45:00,
2013-02-10 04:50:00,36.2,34.6,29.88,SSE,161,4.0,13.0,94,0.03,,---,0.09,VWS V14.00,2013-02-10 10:50:00,
2013-02-10 04:55:00,36.3,34.7,29.88,South,176,1.0,13.0,94,0.03,,---,0.09,VWS V14.00,2013-02-10 10:55:00,
2013-02-10 05:00:00,36.3,34.7,29.88,South,172,6.0,13.0,94,0.03,,---,0.09,VWS V14.00,2013-02-10 11:00:00,
2013-02-10 05:05:00,36.3,34.7,29.88,South,177,8.0,13.0,94,0.03,,---,0.09,VWS V14.00,2013-02-10 11:05:00,
2013-02-10 05:10:00,36.3,34.7,29.88,South,169,5.0,14.0,94,0.03,,---,0.09,VWS V14.00,2013-02-10 11:10:00,
2013-02-10 05:15:00,36.3,34.7,29.87,SE,133,0.0,7.0,94,0.01,,---,0.09,VWS V14.00,2013-02-10 11:15:00,
2013-02-10 05:20:00,36.4,34.8,29.87,South,171,1.0,14.0,94,0.01,,---,0.09,VWS V14.00,2013-02-10 11:20:00,
2013-02-10 05:25:00,36.4,34.8,29.87,ENE,78,4.0,14.0,94,0.01,,---,0.09,VWS V14.00,2013-02-10 11:25:00,
2013-02-10 05:30:00,36.5,34.9,29.85,SSE,168,5.0,14.0,94,0.01,,---,0.09,VWS V14.00,2013-02-10 11:30:00,
2013-02-10 05:35:00,36.5,34.9,29.85,ESE,120,5.0,14.0,94,0.01,,---,0.09,VWS V14.00,2013-02-10 11:35:00,
2013-02-10 05:40:00,36.5,34.9,29.85,South,191,5.0,14.0,94,0.01,,---,0.09,VWS V14.00,2013-02-10 11:40:00,
2013-02-10 05:45:00,36.5,34.9,29.84,South,174,0.0,5.0,94,0.00,,---,0.09,VWS V14.00,2013-02-10 11:45:00,
2013-02-10 05:50:00,36.5,34.9,29.84,ESE,111,6.0,9.0,94,0.00,,---,0.09,VWS V14.00,2013-02-10 11:50:00,
2013-02-10 05:55:00,36.5,34.9,29.84,SSE,167,0.0,10.0,94,0.01,,---,0.10,VWS V14.00,2013-02-10 11:55:00,
2013-02-10 06:00:00,36.5,34.9,29.82,SE,134,2.0,11.0,94,0.01,,---,0.10,VWS V14.00,2013-02-10 12:00:00,
2013-02-10 06:05:00,36.5,34.9,29.82,South,187,1.0,11.0,94,0.01,,---,0.10,VWS V14.00,2013-02-10 12:05:00,
2013-02-10 06:10:00,36.5,34.9,29.82,SSE,160,2.0,11.0,94,0.01,,---,0.10,VWS V14.00,2013-02-10 12:10:00,
2013-02-10 06:15:00,36.6,35.3,29.81,SSE,160,0.0,7.0,95,0.01,,---,0.10,VWS V14.00,2013-02-10 12:15:00,
2013-02-10 06:20:00,36.7,35.4,29.81,SE,124,0.0,19.0,95,0.01,,---,0.10,VWS V14.00,2013-02-10 12:20:00,
2013-02-10 06:25:00,36.8,35.5,29.81,SE,129,0.0,19.0,95,0.02,,---,0.11,VWS V14.00,2013-02-10 12:25:00,
2013-02-10 06:30:00,37.0,35.7,29.80,SE,134,0.0,19.0,95,0.02,,---,0.11,VWS V14.00,2013-02-10 12:30:00,
2013-02-10 06:35:00,37.1,35.8,29.80,SE,145,5.0,19.0,95,0.02,,---,0.11,VWS V14.00,2013-02-10 12:35:00,
2013-02-10 06:40:00,37.2,35.9,29.80,SSE,152,1.0,19.0,95,0.02,,---,0.11,VWS V14.00,2013-02-10 12:40:00,
2013-02-10 06:45:00,37.3,36.0,29.80,SSE,163,0.0,12.0,95,0.02,,---,0.11,VWS V14.00,2013-02-10 12:45:00,
2013-02-10 06:50:00,37.3,36.0,29.80,SE,135,4.0,14.0,95,0.02,,---,0.11,VWS V14.00,2013-02-10 12:50:00,
2013-02-10 06:55:00,37.4,36.1,29.80,SSE,150,0.0,15.0,95,0.03,,---,0.12,VWS V14.00,2013-02-10 12:55:00,
2013-02-10 07:00:00,37.5,36.2,29.79,SSE,148,7.0,15.0,95,0.03,,---,0.12,VWS V14.00,2013-02-10 13:00:00,
2013-02-10 07:05:00,37.6,36.3,29.79,SSE,149,6.0,18.0,95,0.03,,---,0.12,VWS V14.00,2013-02-10 13:05:00,
2013-02-10 07:10:00,37.8,36.5,29.79,SE,139,0.0,18.0,95,0.03,,---,0.12,VWS V14.00,2013-02-10 13:10:00,
2013-02-10 07:15:00,37.9,36.6,29.78,South,191,4.0,16.0,95,0.02,,---,0.12,VWS V14.00,2013-02-10 13:15:00,
2013-02-10 07:20:00,38.0,36.7,29.78,South,181,1.0,16.0,95,0.02,,---,0.12,VWS V14.00,2013-02-10 13:20:00,
2013-02-10 07:25:00,38.1,36.8,29.78,SE,137,5.0,16.0,95,0.02,,---,0.12,VWS V14.00,2013-02-10 13:25:00,
2013-02-10 07:30:00,38.1,36.8,29.77,SE,145,6.0,16.0,95,0.03,,---,0.13,VWS V14.00,2013-02-10 13:30:00,
2013-02-10 07:35:00,38.2,36.9,29.77,SE,133,9.0,16.0,95,0.03,,---,0.13,VWS V14.00,2013-02-10 13:35:00,
2013-02-10 07:40:00,38.2,36.9,29.77,South,187,5.0,16.0,95,0.03,,---,0.13,VWS V14.00,2013-02-10 13:40:00,
2013-02-10 07:45:00,38.2,36.9,29.77,South,178,5.0,18.0,95,0.03,,---,0.14,VWS V14.00,2013-02-10 13:45:00,
2013-02-10 07:50:00,38.2,36.9,29.77,SSE,167,19.0,19.0,95,0.03,,---,0.14,VWS V14.00,2013-02-10 13:50:00,
2013-02-10 07:55:00,38.2,36.9,29.77,SSW,192,13.0,19.0,95,0.03,,---,0.14,VWS V14.00,2013-02-10 13:55:00,
2013-02-10 08:00:00,38.2,36.9,29.74,ESE,115,14.0,23.0,95,0.03,,---,0.14,VWS V14.00,2013-02-10 14:00:00,
2013-02-10 08:05:00,38.2,36.9,29.74,SE,141,10.0,23.0,95,0.04,,---,0.15,VWS V14.00,2013-02-10 14:05:00,
2013-02-10 08:10:00,38.2,36.6,29.74,SE,139,13.0,23.0,94,0.04,,---,0.15,VWS V14.00,2013-02-10 14:10:00,
2013-02-10 08:15:00,38.2,36.6,29.74,South,183,15.0,15.0,94,0.03,,---,0.15,VWS V14.00,2013-02-10 14:15:00,
2013-02-10 08:20:00,38.2,36.6,29.74,SSE,151,5.0,15.0,94,0.03,,---,0.15,VWS V14.00,2013-02-10 14:20:00,
2013-02-10 08:25:00,38.2,36.6,29.74,South,181,10.0,25.0,94,0.05,,---,0.17,VWS V14.00,2013-02-10 14:25:00,
2013-02-10 08:30:00,38.3,37.0,29.74,SSE,151,9.0,25.0,95,0.05,,---,0.17,VWS V14.00,2013-02-10 14:30:00,
2013-02-10 08:35:00,38.2,36.9,29.74,South,190,13.0,25.0,95,0.09,,---,0.21,VWS V14.00,2013-02-10 14:35:00,
2013-02-10 08:40:00,38.3,37.0,29.74,SSE,155,5.0,25.0,95,0.11,,---,0.23,VWS V14.00,2013-02-10 14:40:00,
2013-02-10 08:45:00,38.4,37.1,29.73,SE,136,6.0,7.0,95,0.10,,---,0.24,VWS V14.00,2013-02-10 14:45:00,
2013-02-10 08:50:00,38.4,37.1,29.73,SSW,202,0.0,22.0,95,0.11,,---,0.25,VWS V14.00,2013-02-10 14:50:00,
2013-02-10 08:55:00,38.6,37.3,29.73,SE,141,9.0,22.0,95,0.12,,---,0.26,VWS V14.00,2013-02-10 14:55:00,
2013-02-10 09:00:00,38.7,37.4,29.72,South,189,9.0,22.0,95,0.13,,---,0.27,VWS V14.00,2013-02-10 15:00:00,
2013-02-10 09:05:00,38.9,37.6,29.72,SSE,167,6.0,22.0,95,0.14,,---,0.28,VWS V14.00,2013-02-10 15:05:00,
2013-02-10 09:10:00,39.1,37.8,29.72,South,191,11.0,22.0,95,0.15,,---,0.29,VWS V14.00,2013-02-10 15:10:00,
2013-02-10 09:15:00,39.2,37.9,29.71,SE,143,5.0,12.0,95,0.14,,---,0.29,VWS V14.00,2013-02-10 15:15:00,
2013-02-10 09:20:00,39.3,38.0,29.71,South,178,5.0,19.0,95,0.14,,---,0.29,VWS V14.00,2013-02-10 15:20:00,
2013-02-10 09:25:00,39.5,38.2,29.71,SSE,159,8.0,21.0,95,0.16,,---,0.31,VWS V14.00,2013-02-10 15:25:00,
2013-02-10 09:30:00,39.5,38.2,29.69,South,177,4.0,27.0,95,0.18,,---,0.33,VWS V14.00,2013-02-10 15:30:00,
2013-02-10 09:35:00,39.6,38.3,29.69,SSW,201,16.0,27.0,95,0.18,,---,0.33,VWS V14.00,2013-02-10 15:35:00,
2013-02-10 09:40:00,39.7,38.4,29.69,SW,226,15.0,27.0,95,0.19,,---,0.34,VWS V14.00,2013-02-10 15:40:00,
2013-02-10 09:45:00,39.8,38.5,29.69,SSW,205,18.0,20.0,95,0.11,,---,0.35,VWS V14.00,2013-02-10 15:45:00,
2013-02-10 09:50:00,40.0,38.7,29.69,South,178,9.0,24.0,95,0.13,,---,0.37,VWS V14.00,2013-02-10 15:50:00,
2013-02-10 09:54:00,40.3,39.0,29.69,South,188,11.0,26.0,95,0.14,,---,0.38,VWS V14.00,2013-02-10 15:54:00,
2013-02-10 09:59:00,40.4,39.1,29.67,South,189,19.0,26.0,95,0.15,,---,0.39,VWS V14.00,2013-02-10 15:59:00,
2013-02-10 10:00:00,39.2,37.9,29.71,South,180,7.0,23.0,95,0.15,,---,0.29,VWS V14.00,2013-02-10 16:00:00,
2013-02-10 10:04:00,40.6,39.3,29.67,South,177,6.0,26.0,95,0.15,,---,0.39,VWS V14.00,2013-02-10 16:04:00,
2013-02-10 10:10:00,40.8,39.8,29.67,South,190,19.0,27.0,96,0.16,,---,0.40,VWS V14.00,2013-02-10 16:10:00,
2013-02-10 10:14:00,41.1,39.8,29.67,SSW,212,9.0,25.0,95,0.11,,---,0.40,VWS V14.00,2013-02-10 16:14:00,
2013-02-10 10:19:00,41.3,40.2,29.67,South,191,13.0,32.0,96,0.11,,---,0.40,VWS V14.00,2013-02-10 16:19:00,
2013-02-10 10:24:00,41.4,40.3,29.67,South,171,8.0,32.0,96,0.11,,---,0.40,VWS V14.00,2013-02-10 16:24:00,
2013-02-10 10:29:00,41.5,40.5,29.64,South,176,10.0,32.0,96,0.11,,---,0.40,VWS V14.00,2013-02-10 16:29:00,
2013-02-10 10:30:00,39.8,38.5,29.69,South,180,9.0,27.0,95,0.20,,---,0.35,VWS V14.00,2013-02-10 16:30:00,
2013-02-10 10:34:00,41.7,40.4,29.64,South,172,8.0,32.0,95,0.11,,---,0.40,VWS V14.00,2013-02-10 16:34:00,
2013-02-10 10:39:00,41.8,40.8,29.64,SSW,192,15.0,32.0,96,0.11,,---,0.40,VWS V14.00,2013-02-10 16:39:00,
2013-02-10 10:44:00,41.8,40.8,29.63,SSE,156,21.0,23.0,96,0.05,,---,0.40,VWS V14.00,2013-02-10 16:44:00,
2013-02-10 10:49:00,42.0,40.9,29.63,SSW,200,13.0,27.0,96,0.05,,---,0.40,VWS V14.00,2013-02-10 16:49:00,
2013-02-10 10:55:00,42.1,40.8,29.63,SSW,195,10.0,28.0,95,0.05,,---,0.40,VWS V14.00,2013-02-10 16:55:00,
2013-02-10 11:00:00,42.3,41.0,29.62,South,186,3.0,30.0,95,0.05,,---,0.40,VWS V14.00,2013-02-10 17:00:00,
2013-02-10 11:05:00,42.6,41.3,29.62,South,191,10.0,30.0,95,0.05,,---,0.40,VWS V14.00,2013-02-10 17:05:00,
2013-02-10 11:10:00,42.8,41.5,29.62,SW,219,8.0,30.0,95,0.05,,---,0.40,VWS V14.00,2013-02-10 17:10:00,
2013-02-10 11:15:00,42.9,41.6,29.61,South,188,10.0,21.0,95,0.01,,---,0.41,VWS V14.00,2013-02-10 17:15:00,
2013-02-10 11:20:00,43.0,41.7,29.61,South,177,8.0,38.0,95,0.01,,---,0.41,VWS V14.00,2013-02-10 17:20:00,
2013-02-10 11:25:00,43.2,41.9,29.61,South,181,7.0,38.0,95,0.01,,---,0.41,VWS V14.00,2013-02-10 17:25:00,
2013-02-10 11:30:00,43.3,42.0,29.59,South,191,22.0,38.0,95,0.02,,---,0.42,VWS V14.00,2013-02-10 17:30:00,
2013-02-10 11:35:00,43.3,42.0,29.59,SW,214,24.0,38.0,95,0.02,,---,0.42,VWS V14.00,2013-02-10 17:35:00,
2013-02-10 11:40:00,43.4,42.1,29.59,SSW,213,6.0,38.0,95,0.03,,---,0.43,VWS V14.00,2013-02-10 17:40:00,
2013-02-10 11:45:00,43.5,42.2,29.59,SE,144,10.0,23.0,95,0.03,,---,0.43,VWS V14.00,2013-02-10 17:45:00,
2013-02-10 11:50:00,43.7,42.4,29.59,SSW,212,20.0,24.0,95,0.03,,---,0.43,VWS V14.00,2013-02-10 17:50:00,
2013-02-10 11:55:00,43.8,42.5,29.59,South,187,7.0,29.0,95,0.04,,---,0.44,VWS V14.00,2013-02-10 17:55:00,
2013-02-10 12:00:00,43.8,42.5,29.56,South,175,11.0,29.0,95,0.04,,---,0.44,VWS V14.00,2013-02-10 18:00:00,
2013-02-10 12:05:00,43.9,42.6,29.56,SSW,210,7.0,29.0,95,0.04,,---,0.44,VWS V14.00,2013-02-10 18:05:00,
2013-02-10 12:10:00,44.1,42.8,29.56,SSW,198,20.0,36.0,95,0.05,,---,0.45,VWS V14.00,2013-02-10 18:10:00,
2013-02-10 12:15:00,44.2,42.9,29.55,South,174,14.0,30.0,95,0.04,,---,0.45,VWS V14.00,2013-02-10 18:15:00,
2013-02-10 12:20:00,44.3,43.0,29.55,SSE,164,10.0,30.0,95,0.04,,---,0.45,VWS V14.00,2013-02-10 18:20:00,
2013-02-10 12:25:00,44.4,43.1,29.55,SSW,207,20.0,30.0,95,0.04,,---,0.45,VWS V14.00,2013-02-10 18:25:00,
2013-02-10 12:30:00,44.6,43.3,29.53,SSE,166,16.0,35.0,95,0.04,,---,0.45,VWS V14.00,2013-02-10 18:30:00,
2013-02-10 12:35:00,44.7,43.4,29.53,SSW,193,8.0,35.0,95,0.04,,---,0.45,VWS V14.00,2013-02-10 18:35:00,
2013-02-10 12:40:00,44.8,43.5,29.53,South,181,26.0,35.0,95,0.04,,---,0.45,VWS V14.00,2013-02-10 18:40:00,
2013-02-10 12:45:00,44.8,43.2,29.53,SSW,200,10.0,21.0,94,0.02,,---,0.45,VWS V14.00,2013-02-10 18:45:00,
2013-02-10 12:50:00,44.9,43.3,29.53,SSE,160,13.0,25.0,94,0.02,,---,0.45,VWS V14.00,2013-02-10 18:50:00,
2013-02-10 12:55:00,44.9,43.3,29.53,SSW,202,16.0,26.0,94,0.02,,---,0.45,VWS V14.00,2013-02-10 18:55:00,
2013-02-10 13:00:00,45.0,43.4,29.52,SSW,194,16.0,31.0,94,0.02,,---,0.45,VWS V14.00,2013-02-10 19:00:00,
2013-02-10 13:05:00,45.1,43.5,29.52,SSW,198,8.0,31.0,94,0.02,,---,0.45,VWS V14.00,2013-02-10 19:05:00,
2013-02-10 13:10:00,45.2,43.6,29.52,SSW,212,25.0,33.0,94,0.02,,---,0.45,VWS V14.00,2013-02-10 19:10:00,
2013-02-10 13:14:00,45.4,43.8,29.51,SSW,205,12.0,21.0,94,0.00,,---,0.45,VWS V14.00,2013-02-10 19:14:00,
2013-02-10 13:19:00,45.5,43.9,29.51,SSW,207,16.0,32.0,94,0.00,,---,0.45,VWS V14.00,2013-02-10 19:19:00,
2013-02-10 13:24:00,45.6,44.0,29.51,SSW,199,22.0,32.0,94,0.00,,---,0.45,VWS V14.00,2013-02-10 19:24:00,
2013-02-10 13:29:00,45.8,44.2,29.51,South,176,26.0,32.0,94,0.00,,---,0.45,VWS V14.00,2013-02-10 19:29:00,
2013-02-10 13:30:00,44.8,43.2,29.53,South,180,14.0,35.0,94,0.04,,---,0.45,VWS V14.00,2013-02-10 19:30:00,
2013-02-10 13:34:00,46.0,44.4,29.51,SW,220,19.0,32.0,94,0.00,,---,0.45,VWS V14.00,2013-02-10 19:34:00,
2013-02-10 13:39:00,46.1,44.5,29.51,SE,133,12.0,32.0,94,0.00,,---,0.45,VWS V14.00,2013-02-10 19:39:00,
2013-02-10 13:44:00,46.3,44.7,29.49,South,172,7.0,28.0,94,0.00,,---,0.45,VWS V14.00,2013-02-10 19:44:00,
2013-02-10 13:49:00,46.4,44.8,29.49,South,173,9.0,36.0,94,0.00,,---,0.45,VWS V14.00,2013-02-10 19:49:00,
2013-02-10 13:54:00,46.4,44.8,29.49,South,191,14.0,36.0,94,0.00,,---,0.45,VWS V14.00,2013-02-10 19:54:00,
2013-02-10 14:00:00,46.4,44.8,29.48,SSW,212,26.0,36.0,94,0.00,,---,0.45,VWS V14.00,2013-02-10 20:00:00,
2013-02-10 14:04:00,46.5,44.9,29.48,SSW,192,15.0,36.0,94,0.00,,---,0.45,VWS V14.00,2013-02-10 20:04:00,
2013-02-10 14:09:00,46.5,44.9,29.48,SW,214,9.0,36.0,94,0.00,,---,0.45,VWS V14.00,2013-02-10 20:09:00,
2013-02-10 14:14:00,46.5,44.9,29.49,South,176,16.0,23.0,94,0.00,,---,0.45,VWS V14.00,2013-02-10 20:14:00,
2013-02-10 14:19:00,46.6,45.0,29.49,South,172,12.0,25.0,94,0.00,,---,0.45,VWS V14.00,2013-02-10 20:19:00,
2013-02-10 14:24:00,46.5,44.9,29.49,South,178,18.0,25.0,94,0.00,,---,0.45,VWS V14.00,2013-02-10 20:24:00,
2013-02-10 14:29:00,46.6,45.0,29.48,SE,146,11.0,25.0,94,0.01,,---,0.46,VWS V14.00,2013-02-10 20:29:00,
2013-02-10 14:30:00,46.2,44.6,29.49,SSW,202,15.0,32.0,94,0.00,,---,0.45,VWS V14.00,2013-02-10 20:30:00,
2013-02-10 14:34:00,46.8,45.2,29.48,SSE,160,12.0,28.0,94,0.01,,---,0.46,VWS V14.00,2013-02-10 20:34:00,
2013-02-10 14:39:00,46.8,45.2,29.48,SSW,203,6.0,32.0,94,0.01,,---,0.46,VWS V14.00,2013-02-10 20:39:00,
2013-02-10 14:44:00,46.8,45.5,29.47,SW,221,22.0,26.0,95,0.01,,---,0.46,VWS V14.00,2013-02-10 20:44:00,
2013-02-10 14:49:00,46.9,45.5,29.47,SW,214,27.0,34.0,95,0.01,,---,0.46,VWS V14.00,2013-02-10 20:49:00,
2013-02-10 14:54:00,46.9,45.5,29.47,SW,219,16.0,34.0,95,0.01,,---,0.46,VWS V14.00,2013-02-10 20:54:00,
2013-02-10 14:59:00,46.9,45.5,29.48,SW,218,22.0,34.0,95,0.01,,---,0.46,VWS V14.00,2013-02-10 20:59:00,
2013-02-10 15:00:00,46.5,44.9,29.49,SSW,202,15.0,36.0,94,0.00,,---,0.45,VWS V14.00,2013-02-10 21:00:00,
2013-02-10 15:04:00,46.8,45.5,29.48,SW,219,13.0,34.0,95,0.02,,---,0.47,VWS V14.00,2013-02-10 21:04:00,
2013-02-10 15:09:00,46.8,45.5,29.48,SSW,203,10.0,34.0,95,0.02,,---,0.47,VWS V14.00,2013-02-10 21:09:00,
2013-02-10 15:14:00,46.8,45.5,29.47,SW,217,19.0,25.0,95,0.02,,---,0.47,VWS V14.00,2013-02-10 21:14:00,
2013-02-10 15:19:00,46.8,45.5,29.47,SSW,200,12.0,27.0,95,0.02,,---,0.47,VWS V14.00,2013-02-10 21:19:00,
2013-02-10 15:24:00,46.8,45.5,29.47,South,184,14.0,30.0,95,0.02,,---,0.47,VWS V14.00,2013-02-10 21:24:00,
2013-02-10 15:29:00,46.9,45.5,29.45,South,185,22.0,30.0,95,0.02,,---,0.47,VWS V14.00,2013-02-10 21:29:00,
2013-02-10 15:30:00,46.8,45.5,29.47,SSW,202,15.0,32.0,95,0.01,,---,0.46,VWS V14.00,2013-02-10 21:30:00,
2013-02-10 15:34:00,46.9,45.5,29.45,SW,216,24.0,30.0,95,0.02,,---,0.47,VWS V14.00,2013-02-10 21:34:00,
2013-02-10 15:39:00,46.9,45.5,29.45,South,178,19.0,30.0,95,0.02,,---,0.47,VWS V14.00,2013-02-10 21:39:00,
2013-02-10 15:44:00,47.0,45.7,29.46,SW,217,18.0,25.0,95,0.01,,---,0.47,VWS V14.00,2013-02-10 21:44:00,
2013-02-10 15:49:00,47.0,45.7,29.46,SW,220,21.0,25.0,95,0.01,,---,0.47,VWS V14.00,2013-02-10 21:49:00,
2013-02-10 15:54:00,47.1,45.7,29.46,South,182,18.0,27.0,95,0.01,,---,0.47,VWS V14.00,2013-02-10 21:54:00,
2013-02-10 15:59:00,47.2,46.1,29.46,South,174,12.0,27.0,96,0.01,,---,0.47,VWS V14.00,2013-02-10 21:59:00,
2013-02-10 16:00:00,46.8,45.5,29.47,SW,225,17.0,34.0,95,0.02,,---,0.47,VWS V14.00,2013-02-10 22:00:00,
2013-02-10 16:04:00,47.2,46.1,29.46,SSE,165,15.0,27.0,96,0.01,,---,0.47,VWS V14.00,2013-02-10 22:04:00,
2013-02-10 16:09:00,47.4,46.3,29.46,South,174,13.0,31.0,96,0.01,,---,0.47,VWS V14.00,2013-02-10 22:09:00,
2013-02-10 16:14:00,47.4,46.3,29.44,SW,214,21.0,23.0,96,0.00,,---,0.47,VWS V14.00,2013-02-10 22:14:00,
2013-02-10 16:19:00,47.5,46.1,29.44,South,184,14.0,25.0,95,0.00,,---,0.47,VWS V14.00,2013-02-10 22:19:00,
2013-02-10 16:24:00,47.6,46.2,29.44,SSW,212,18.0,30.0,95,0.00,,---,0.47,VWS V14.00,2013-02-10 22:24:00,
2013-02-10 16:29:00,47.8,46.7,29.44,South,186,11.0,30.0,96,0.00,,---,0.47,VWS V14.00,2013-02-10 22:29:00,
2013-02-10 16:30:00,46.9,45.5,29.46,SSW,202,16.0,32.0,95,0.02,,---,0.47,VWS V14.00,2013-02-10 22:30:00,
2013-02-10 16:34:00,47.9,46.8,29.44,SSW,205,11.0,30.0,96,0.00,,---,0.47,VWS V14.00,2013-02-10 22:34:00,
2013-02-10 16:39:00,48.0,46.6,29.44,SSW,210,20.0,30.0,95,0.00,,---,0.47,VWS V14.00,2013-02-10 22:39:00,
2013-02-10 16:44:00,48.2,46.8,29.44,SW,222,13.0,26.0,95,0.00,,---,0.47,VWS V14.00,2013-02-10 22:44:00,
2013-02-10 16:49:00,48.5,47.1,29.44,SW,219,22.0,30.0,95,0.00,,---,0.47,VWS V14.00,2013-02-10 22:49:00,
2013-02-10 16:54:00,48.4,47.0,29.44,South,191,23.0,30.0,95,0.00,,---,0.47,VWS V14.00,2013-02-10 22:54:00,
2013-02-10 16:59:00,48.5,47.1,29.44,South,178,21.0,31.0,95,0.00,,---,0.47,VWS V14.00,2013-02-10 22:59:00,
2013-02-10 17:00:00,47.4,46.3,29.44,SSW,202,15.0,31.0,96,0.01,,---,0.47,VWS V14.00,2013-02-10 23:00:00,
2013-02-10 17:04:00,48.6,47.2,29.44,SW,230,14.0,36.0,95,0.00,,---,0.47,VWS V14.00,2013-02-10 23:04:00,
2013-02-10 17:09:00,48.6,47.0,29.44,SSW,210,20.0,36.0,94,0.00,,---,0.47,VWS V14.00,2013-02-10 23:09:00,
2013-02-10 17:14:00,48.6,47.0,29.44,SSW,204,12.0,29.0,94,0.00,,---,0.47,VWS V14.00,2013-02-10 23:14:00,
2013-02-10 17:19:00,48.7,47.0,29.44,SW,215,21.0,30.0,94,0.00,,---,0.47,VWS V14.00,2013-02-10 23:19:00,
2013-02-10 17:24:00,48.8,47.2,29.44,SW,221,18.0,30.0,94,0.00,,---,0.47,VWS V14.00,2013-02-10 23:24:00,
2013-02-10 17:29:00,48.9,47.2,29.44,SW,226,18.0,30.0,94,0.00,,---,0.47,VWS V14.00,2013-02-10 23:29:00,
2013-02-10 17:30:00,48.1,46.7,29.44,SSW,202,16.0,34.0,95,0.00,,---,0.47,VWS V14.00,2013-02-10 23:30:00,
2013-02-10 17:34:00,49.0,47.3,29.44,SSW,203,12.0,30.0,94,0.00,,---,0.47,VWS V14.00,2013-02-10 23:34:00,
2013-02-10 17:39:00,49.1,47.5,29.44,SSW,212,16.0,30.0,94,0.00,,---,0.47,VWS V14.00,2013-02-10 23:39:00,
2013-02-10 17:44:00,49.1,47.5,29.45,SSW,208,15.0,22.0,94,0.00,,---,0.47,VWS V14.00,2013-02-10 23:44:00,
2013-02-10 17:49:00,49.1,47.5,29.45,SSW,210,22.0,27.0,94,0.00,,---,0.47,VWS V14.00,2013-02-10 23:49:00,
2013-02-10 17:54:00,49.1,47.5,29.45,SW,221,14.0,27.0,94,0.00,,---,0.47,VWS V14.00,2013-02-10 23:54:00,
2013-02-10 17:59:00,49.2,47.5,29.44,SW,223,23.0,29.0,94,0.00,,---,0.47,VWS V14.00,2013-02-10 23:59:00,
2013-02-10 18:00:00,48.6,47.0,29.44,SW,225,19.0,36.0,94,0.00,,---,0.47,VWS V14.00,2013-02-11 00:00:00,
2013-02-10 18:04:00,49.3,47.7,29.44,SSW,213,22.0,29.0,94,0.00,,---,0.47,VWS V14.00,2013-02-11 00:04:00,
2013-02-10 18:09:00,49.3,47.7,29.44,SW,224,18.0,29.0,94,0.00,,---,0.47,VWS V14.00,2013-02-11 00:09:00,
2013-02-10 18:14:00,49.3,47.7,29.44,SSW,195,30.0,30.0,94,0.00,,---,0.47,VWS V14.00,2013-02-11 00:14:00,
2013-02-10 18:19:00,49.3,47.7,29.44,SW,220,30.0,31.0,94,0.00,,---,0.47,VWS V14.00,2013-02-11 00:19:00,
2013-02-10 18:24:00,49.2,47.5,29.44,SSW,213,11.0,31.0,94,0.00,,---,0.47,VWS V14.00,2013-02-11 00:24:00,
2013-02-10 18:29:00,49.2,47.5,29.45,SW,215,12.0,31.0,94,0.00,,---,0.47,VWS V14.00,2013-02-11 00:29:00,
2013-02-10 18:30:00,49.1,47.5,29.45,SW,225,18.0,31.0,94,0.00,,---,0.47,VWS V14.00,2013-02-11 00:30:00,
2013-02-10 18:34:00,49.2,47.5,29.45,SW,224,15.0,31.0,94,0.00,,---,0.47,VWS V14.00,2013-02-11 00:34:00,
2013-02-10 18:39:00,49.2,47.5,29.45,SW,217,10.0,31.0,94,0.00,,---,0.47,VWS V14.00,2013-02-11 00:39:00,
2013-02-10 18:44:00,49.3,47.7,29.46,SSW,212,12.0,26.0,94,0.00,,---,0.47,VWS V14.00,2013-02-11 00:44:00,
2013-02-10 18:49:00,49.2,47.3,29.46,SW,226,25.0,27.0,93,0.00,,---,0.47,VWS V14.00,2013-02-11 00:49:00,
2013-02-10 18:54:00,49.2,47.3,29.46,SW,230,16.0,27.0,93,0.00,,---,0.47,VWS V14.00,2013-02-11 00:54:00,
2013-02-10 18:59:00,49.2,47.3,29.46,SW,225,11.0,29.0,93,0.00,,---,0.47,VWS V14.00,2013-02-11 00:59:00,
2013-02-10 19:00:00,49.3,47.7,29.44,SW,225,17.0,31.0,94,0.00,,---,0.47,VWS V14.00,2013-02-11 01:00:00,
2013-02-10 19:04:00,49.2,47.3,29.46,SW,231,11.0,29.0,93,0.00,,---,0.47,VWS V14.00,2013-02-11 01:04:00,
2013-02-10 19:09:00,49.2,47.5,29.46,SW,231,12.0,29.0,94,0.00,,---,0.47,VWS V14.00,2013-02-11 01:09:00,
2013-02-10 19:14:00,49.2,47.5,29.46,SW,226,18.0,24.0,94,0.00,,---,0.47,VWS V14.00,2013-02-11 01:14:00,
2013-02-10 19:19:00,49.2,47.3,29.46,SW,231,12.0,24.0,93,0.00,,---,0.47,VWS V14.00,2013-02-11 01:19:00,
2013-02-10 19:24:00,49.3,47.4,29.46,SW,230,13.0,28.0,93,0.00,,---,0.47,VWS V14.00,2013-02-11 01:24:00,
2013-02-10 19:29:00,49.2,47.3,29.47,SW,227,13.0,28.0,93,0.00,,---,0.47,VWS V14.00,2013-02-11 01:29:00,
2013-02-10 19:30:00,49.2,47.5,29.46,SW,225,17.0,31.0,94,0.00,,---,0.47,VWS V14.00,2013-02-11 01:30:00,
2013-02-10 19:34:00,49.2,47.5,29.47,SW,235,19.0,28.0,94,0.00,,---,0.47,VWS V14.00,2013-02-11 01:34:00,
2013-02-10 19:39:00,49.2,47.3,29.47,SW,233,18.0,28.0,93,0.00,,---,0.47,VWS V14.00,2013-02-11 01:39:00,
2013-02-10 19:44:00,49.2,47.3,29.47,SW,229,18.0,22.0,93,0.00,,---,0.47,VWS V14.00,2013-02-11 01:44:00,
2013-02-10 19:49:00,49.1,47.2,29.47,SSW,212,18.0,22.0,93,0.00,,---,0.47,VWS V14.00,2013-02-11 01:49:00,
2013-02-10 19:54:00,49.0,47.1,29.47,SW,227,11.0,22.0,93,0.00,,---,0.47,VWS V14.00,2013-02-11 01:54:00,
2013-02-10 19:59:00,49.0,47.3,29.48,WSW,245,11.0,24.0,94,0.00,,---,0.47,VWS V14.00,2013-02-11 01:59:00,
2013-02-10 20:00:00,49.2,47.5,29.46,SW,225,17.0,32.0,94,0.00,,---,0.47,VWS V14.00,2013-02-11 02:00:00,
2013-02-10 20:04:00,49.0,47.1,29.48,SW,221,18.0,24.0,93,0.00,,---,0.47,VWS V14.00,2013-02-11 02:04:00,
2013-02-10 20:09:00,48.8,46.9,29.48,WSW,250,20.0,24.0,93,0.00,,---,0.47,VWS V14.00,2013-02-11 02:09:00,
2013-02-10 20:14:00,48.6,46.7,29.49,SW,229,14.0,21.0,93,0.00,,---,0.47,VWS V14.00,2013-02-11 02:14:00,
2013-02-10 20:19:00,48.6,46.4,29.49,WSW,239,14.0,23.0,92,0.00,,---,0.47,VWS V14.00,2013-02-11 02:19:00,
2013-02-10 20:24:00,48.6,46.1,29.49,WSW,254,14.0,23.0,91,0.00,,---,0.47,VWS V14.00,2013-02-11 02:24:00,
2013-02-10 20:29:00,48.5,45.7,29.49,SW,233,14.0,23.0,90,0.00,,---,0.47,VWS V14.00,2013-02-11 02:29:00,
2013-02-10 20:30:00,49.2,47.3,29.47,SW,225,16.0,28.0,93,0.00,,---,0.47,VWS V14.00,2013-02-11 02:30:00,
2013-02-10 20:34:00,48.6,45.2,29.49,WSW,258,12.0,23.0,88,0.00,,---,0.47,VWS V14.00,2013-02-11 02:34:00,
2013-02-10 20:39:00,48.6,44.6,29.49,West,279,18.0,24.0,86,0.00,,---,0.47,VWS V14.00,2013-02-11 02:39:00,
2013-02-10 20:44:00,48.5,42.6,29.50,WSW,257,12.0,24.0,80,0.00,,---,0.47,VWS V14.00,2013-02-11 02:44:00,
2013-02-10 20:49:00,48.5,41.6,29.50,WSW,257,15.0,33.0,77,0.00,,---,0.47,VWS V14.00,2013-02-11 02:49:00,
2013-02-10 20:54:00,48.2,40.7,29.50,WSW,246,14.0,33.0,75,0.00,,---,0.47,VWS V14.00,2013-02-11 02:54:00,
2013-02-10 20:59:00,48.1,39.9,29.50,WSW,250,15.0,33.0,73,0.00,,---,0.47,VWS V14.00,2013-02-11 02:59:00,
2013-02-10 21:00:00,48.6,46.7,29.49,SW,225,15.0,24.0,93,0.00,,---,0.47,VWS V14.00,2013-02-11 03:00:00,
2013-02-10 21:04:00,47.9,39.3,29.50,WSW,252,14.0,33.0,72,0.00,,---,0.47,VWS V14.00,2013-02-11 03:04:00,
2013-02-10 21:09:00,47.6,38.3,29.50,West,259,14.0,33.0,70,0.00,,---,0.47,VWS V14.00,2013-02-11 03:09:00,
2013-02-10 21:14:00,47.4,38.1,29.50,West,262,11.0,22.0,70,0.00,,---,0.47,VWS V14.00,2013-02-11 03:14:00,
2013-02-10 21:19:00,47.4,37.8,29.50,WSW,251,14.0,23.0,69,0.00,,---,0.47,VWS V14.00,2013-02-11 03:19:00,
2013-02-10 21:24:00,47.4,37.8,29.50,WSW,252,16.0,24.0,69,0.00,,---,0.47,VWS V14.00,2013-02-11 03:24:00,
2013-02-10 21:29:00,47.4,37.8,29.50,WSW,250,13.0,24.0,69,0.00,,---,0.47,VWS V14.00,2013-02-11 03:29:00,
2013-02-10 21:30:00,48.5,43.3,29.50,WSW,248,15.0,25.0,82,0.00,,---,0.47,VWS V14.00,2013-02-11 03:30:00,
2013-02-10 21:34:00,47.3,37.7,29.50,WSW,247,18.0,24.0,69,0.00,,---,0.47,VWS V14.00,2013-02-11 03:34:00,
2013-02-10 21:39:00,47.4,37.8,29.50,WSW,249,14.0,24.0,69,0.00,,---,0.47,VWS V14.00,2013-02-11 03:39:00,
2013-02-10 21:44:00,47.2,37.6,29.51,West,260,12.0,16.0,69,0.00,,---,0.47,VWS V14.00,2013-02-11 03:44:00,
2013-02-10 21:49:00,46.9,37.6,29.51,West,262,19.0,26.0,70,0.00,,---,0.47,VWS V14.00,2013-02-11 03:49:00,
2013-02-10 21:54:00,46.9,37.6,29.51,West,260,16.0,26.0,70,0.00,,---,0.47,VWS V14.00,2013-02-11 03:54:00,
2013-02-10 21:59:00,47.0,37.4,29.52,WSW,251,12.0,29.0,69,0.00,,---,0.47,VWS V14.00,2013-02-11 03:59:00,
2013-02-10 22:00:00,47.5,38.2,29.50,WSW,248,16.0,33.0,70,0.00,,---,0.47,VWS V14.00,2013-02-11 04:00:00,
2013-02-10 22:04:00,47.0,36.6,29.52,West,264,24.0,29.0,67,0.00,,---,0.47,VWS V14.00,2013-02-11 04:04:00,
2013-02-10 22:09:00,46.9,36.5,29.52,North,0,18.0,31.0,67,0.00,,---,0.47,VWS V14.00,2013-02-11 04:09:00,
2013-02-10 22:14:00,46.7,36.0,29.52,WSW,248,28.0,28.0,66,0.00,,---,0.47,VWS V14.00,2013-02-11 04:14:00,
2013-02-10 22:19:00,46.5,36.2,29.52,WSW,239,26.0,28.0,67,0.00,,---,0.47,VWS V14.00,2013-02-11 04:19:00,
2013-02-10 22:24:00,46.1,36.1,29.52,WSW,256,16.0,28.0,68,0.00,,---,0.47,VWS V14.00,2013-02-11 04:24:00,
2013-02-10 22:29:00,45.8,36.2,29.52,West,272,13.0,28.0,69,0.00,,---,0.47,VWS V14.00,2013-02-11 04:29:00,
2013-02-10 22:30:00,47.3,37.7,29.51,WSW,248,14.0,24.0,69,0.00,,---,0.47,VWS V14.00,2013-02-11 04:30:00,
2013-02-10 22:34:00,45.5,35.9,29.52,West,262,18.0,28.0,69,0.00,,---,0.47,VWS V14.00,2013-02-11 04:34:00,
2013-02-10 22:39:00,45.1,35.9,29.52,West,274,14.0,28.0,70,0.00,,---,0.47,VWS V14.00,2013-02-11 04:39:00,
2013-02-10 22:44:00,45.0,35.5,29.52,WNW,282,20.0,34.0,69,0.00,,---,0.47,VWS V14.00,2013-02-11 04:44:00,
2013-02-10 22:49:00,44.9,34.6,29.52,WSW,245,33.0,36.0,67,0.00,,---,0.47,VWS V14.00,2013-02-11 04:49:00,
2013-02-10 22:54:00,44.7,33.7,29.52,WSW,240,30.0,39.0,65,0.00,,---,0.47,VWS V14.00,2013-02-11 04:54:00,
2013-02-10 22:59:00,44.5,33.5,29.53,West,259,25.0,39.0,65,0.00,,---,0.47,VWS V14.00,2013-02-11 04:59:00,
2013-02-10 23:00:00,44.5,33.5,29.53,West,262,28.0,39.0,65,0.00,,---,0.47,VWS V14.00,2013-02-11 05:00:00,
2013-02-10 23:05:00,44.2,33.2,29.53,WNW,294,29.0,39.0,65,0.00,,---,0.47,VWS V14.00,2013-02-11 05:05:00,
2013-02-10 23:10:00,44.0,33.4,29.53,West,271,22.0,39.0,66,0.00,,---,0.47,VWS V14.00,2013-02-11 05:10:00,
2013-02-10 23:15:00,43.6,33.4,29.53,WSW,242,23.0,35.0,67,0.00,,---,0.00,VWS V14.00,2013-02-11 05:15:00,
2013-02-10 23:20:00,43.4,33.2,29.53,WSW,257,29.0,35.0,67,0.00,,---,0.00,VWS V14.00,2013-02-11 05:20:00,
2013-02-10 23:25:00,43.2,33.4,29.53,West,262,20.0,35.0,68,0.00,,---,0.00,VWS V14.00,2013-02-11 05:25:00,
2013-02-10 23:30:00,43.0,33.5,29.54,WSW,245,20.0,35.0,69,0.00,,---,0.00,VWS V14.00,2013-02-11 05:30:00,
2013-02-10 23:35:00,42.7,33.6,29.54,West,278,18.0,35.0,70,0.00,,---,0.00,VWS V14.00,2013-02-11 05:35:00,
2013-02-10 23:40:00,42.6,33.5,29.54,West,280,14.0,35.0,70,0.00,,---,0.00,VWS V14.00,2013-02-11 05:40:00,
2013-02-10 23:45:00,42.4,33.3,29.54,WSW,252,21.0,29.0,70,0.00,,---,0.00,VWS V14.00,2013-02-11 05:45:00,
2013-02-10 23:50:00,42.2,33.1,29.54,West,259,21.0,29.0,70,0.00,,---,0.00,VWS V14.00,2013-02-11 05:50:00,
2013-02-10 23:55:00,41.8,33.1,29.54,West,264,16.0,30.0,71,0.00,,---,0.00,VWS V14.00,2013-02-11 05:55:00,